createdAt,value
2022-12-14T00:01:30.252Z,99614.44
2022-12-14T00:07:02.509Z,99620.88
2022-12-14T00:09:30.994Z,99619.25
2022-12-14T00:11:59.435Z,99634.25
2022-12-14T00:14:27.893Z,99624.72
2022-12-14T00:16:56.555Z,99622.16
2022-12-14T00:19:26.302Z,99631.13
2022-12-14T00:21:54.920Z,99636.63
2022-12-14T00:24:24.917Z,99632.59
2022-12-14T00:26:53.425Z,99638.75
2022-12-14T00:29:21.870Z,99637.06
2022-12-14T00:31:51.563Z,99647.09
2022-12-14T00:34:20.067Z,99647.47
2022-12-14T00:36:48.649Z,99648.72
2022-12-14T00:39:17.419Z,99644.31
2022-12-14T00:41:47.435Z,99651.91
2022-12-14T00:44:16.076Z,99653.81
2022-12-14T00:46:44.680Z,99661.19
2022-12-14T00:49:13.638Z,99663.03
2022-12-14T00:51:42.029Z,99663.75
2022-12-14T00:54:10.569Z,99654.88
2022-12-14T00:56:39.139Z,99674.13
2022-12-14T00:59:09.065Z,99668.03
2022-12-14T01:01:38.116Z,99668.16
2022-12-14T01:04:19.845Z,99667.72
2022-12-14T01:06:49.671Z,99663.22
2022-12-14T01:09:19.346Z,99662.91
2022-12-14T01:11:48.186Z,99667.69
2022-12-14T01:14:20.848Z,99659.88
2022-12-14T01:16:49.382Z,99659.03
2022-12-14T01:19:18.032Z,99665.56
2022-12-14T01:21:46.483Z,99670.41
2022-12-14T01:24:15.245Z,99668.28
2022-12-14T01:26:43.739Z,99676.81
2022-12-14T01:29:13.230Z,99670.50
2022-12-14T01:31:43.636Z,99686.06
2022-12-14T01:34:17.491Z,99679.81
2022-12-14T01:36:46.448Z,99684.00
2022-12-14T01:39:17.176Z,99686.53
2022-12-14T01:41:49.597Z,99690.81
2022-12-14T01:44:58.912Z,99692.44
2022-12-14T01:47:35.843Z,99698.63
2022-12-14T01:50:11.301Z,99694.22
2022-12-14T01:52:42.933Z,99702.31
2022-12-14T01:55:16.055Z,99702.66
2022-12-14T01:57:50.508Z,99702.75
2022-12-14T02:00:19.478Z,99701.88
2022-12-14T02:02:54.698Z,99700.13
2022-12-14T02:05:24.930Z,99697.50
2022-12-14T02:07:56.236Z,99704.50
2022-12-14T02:10:27.587Z,99707.06
2022-12-14T02:13:03.577Z,99707.13
2022-12-14T02:15:33.271Z,99707.13
2022-12-14T02:18:04.997Z,99711.53
2022-12-14T02:20:41.500Z,99707.13
2022-12-14T02:23:51.128Z,99711.66
2022-12-14T02:27:07.330Z,99712.66
2022-12-14T02:29:53.585Z,99717.97
2022-12-14T02:32:42.604Z,99721.53
2022-12-14T02:35:22.930Z,99715.44
2022-12-14T02:38:02.031Z,99716.34
2022-12-14T02:40:39.673Z,99718.91
2022-12-14T02:43:17.770Z,99710.09
2022-12-14T02:45:56.952Z,99711.88
2022-12-14T02:48:28.362Z,99724.94
2022-12-14T02:51:03.540Z,99710.88
2022-12-14T02:53:40.000Z,99723.16
2022-12-14T02:56:11.623Z,99724.00
2022-12-14T02:58:43.219Z,99724.94
2022-12-14T03:01:15.798Z,99731.09
2022-12-14T03:03:44.721Z,99738.13
2022-12-14T03:06:26.598Z,99734.72
2022-12-14T03:08:58.678Z,99728.63
2022-12-14T03:11:35.594Z,99738.28
2022-12-14T03:14:10.071Z,99741.81
2022-12-14T03:16:44.912Z,99739.38
2022-12-14T03:19:20.391Z,99741.03
2022-12-14T03:21:53.214Z,99753.28
2022-12-14T03:24:25.514Z,99745.38
2022-12-14T03:26:59.180Z,99746.94
2022-12-14T03:29:31.098Z,99749.47
2022-12-14T03:32:05.092Z,99749.69
2022-12-14T03:34:37.316Z,99737.44
2022-12-14T03:37:11.506Z,99739.97
2022-12-14T03:39:42.464Z,99741.81
2022-12-14T03:42:20.012Z,99736.56
2022-12-14T03:44:53.711Z,99738.41
2022-12-14T03:47:46.271Z,99733.28
2022-12-14T03:50:21.114Z,99730.00
2022-12-14T03:52:58.256Z,99732.72
2022-12-14T03:55:31.360Z,99736.25
2022-12-14T03:58:19.963Z,99738.16
2022-12-14T04:01:01.496Z,99734.59
2022-12-14T04:03:47.039Z,99743.28
2022-12-14T04:06:26.018Z,99745.69
2022-12-14T04:09:06.446Z,99752.72
2022-12-14T04:11:55.618Z,99752.59
2022-12-14T04:14:51.099Z,99750.03
2022-12-14T04:17:45.258Z,99749.03
2022-12-14T04:20:22.622Z,99748.38
2022-12-14T04:22:57.265Z,99752.72
2022-12-14T04:25:49.642Z,99740.66
2022-12-14T04:28:39.449Z,99746.28
2022-12-14T04:31:14.016Z,99742.41
2022-12-14T04:33:50.481Z,99748.38
2022-12-14T04:36:26.493Z,99749.25
2022-12-14T04:39:01.653Z,99749.19
2022-12-14T04:41:34.662Z,99746.66
2022-12-14T04:44:08.067Z,99748.38
2022-12-14T04:46:40.842Z,99746.75
2022-12-14T04:49:20.124Z,99741.56
2022-12-14T04:52:04.994Z,99742.50
2022-12-14T04:54:39.460Z,99746.88
2022-12-14T04:57:18.796Z,99753.03
2022-12-14T04:59:49.214Z,99739.22
2022-12-14T05:02:29.425Z,99747.13
2022-12-14T05:05:05.310Z,99741.84
2022-12-14T05:07:48.856Z,99745.53
2022-12-14T05:10:21.351Z,99750.94
2022-12-14T05:12:58.878Z,99751.78
2022-12-14T05:15:33.667Z,99746.00
2022-12-14T05:18:04.998Z,99753.97
2022-12-14T05:20:34.155Z,99754.81
2022-12-14T05:23:04.358Z,99760.16
2022-12-14T05:25:33.186Z,99758.31
2022-12-14T05:28:01.938Z,99761.09
2022-12-14T05:30:34.099Z,99765.41
2022-12-14T05:33:05.824Z,99758.22
2022-12-14T05:35:34.623Z,99760.06
2022-12-14T05:38:07.340Z,99758.41
2022-12-14T05:40:38.381Z,99760.22
2022-12-14T05:43:07.457Z,99756.75
2022-12-14T05:45:38.031Z,99765.72
2022-12-14T05:48:09.183Z,99759.50
2022-12-14T05:50:38.504Z,99768.47
2022-12-14T05:53:09.184Z,99768.16
2022-12-14T05:55:40.123Z,99761.75
2022-12-14T05:58:08.976Z,99761.38
2022-12-14T06:00:37.668Z,99757.75
2022-12-14T06:03:06.694Z,99762.09
2022-12-14T06:05:35.588Z,99762.88
2022-12-14T06:08:04.464Z,99761.69
2022-12-14T06:10:34.685Z,99765.97
2022-12-14T06:13:03.506Z,99764.13
2022-12-14T06:15:34.224Z,99771.16
2022-12-14T06:18:03.110Z,99764.97
2022-12-14T06:20:31.827Z,99776.31
2022-12-14T06:23:03.747Z,99780.53
2022-12-14T06:25:34.500Z,99782.19
2022-12-14T06:28:03.458Z,99774.16
2022-12-14T06:30:32.136Z,99782.00
2022-12-14T06:33:01.129Z,99782.00
2022-12-14T06:35:29.926Z,99786.31
2022-12-14T06:37:58.950Z,99785.41
2022-12-14T06:40:27.791Z,99790.66
2022-12-14T06:43:01.263Z,99793.16
2022-12-14T06:45:30.191Z,99798.53
2022-12-14T06:47:59.812Z,99793.19
2022-12-14T06:50:29.402Z,99785.41
2022-12-14T06:53:07.102Z,99792.53
2022-12-14T06:55:36.012Z,99784.75
2022-12-14T06:58:06.421Z,99795.97
2022-12-14T07:00:35.059Z,99793.38
2022-12-14T07:03:04.002Z,99794.19
2022-12-14T07:05:45.680Z,99794.84
2022-12-14T07:08:17.679Z,99789.22
2022-12-14T07:10:46.222Z,99789.41
2022-12-14T07:13:16.521Z,99789.41
2022-12-14T07:15:45.325Z,99799.00
2022-12-14T07:18:14.105Z,99804.72
2022-12-14T07:20:46.039Z,99791.59
2022-12-14T07:23:17.780Z,99795.72
2022-12-14T07:25:46.628Z,99795.06
2022-12-14T07:28:19.694Z,99790.91
2022-12-14T07:30:56.227Z,99794.72
2022-12-14T07:33:26.099Z,99791.94
2022-12-14T07:36:07.168Z,99788.81
2022-12-14T07:38:36.639Z,99787.09
2022-12-14T07:41:07.519Z,99795.91
2022-12-14T07:43:38.159Z,99803.59
2022-12-14T07:46:11.943Z,99802.75
2022-12-14T07:48:41.282Z,99809.81
2022-12-14T07:51:11.620Z,99796.69
2022-12-14T07:53:40.944Z,99808.91
2022-12-14T07:56:12.731Z,99804.56
2022-12-14T07:58:43.504Z,99791.94
2022-12-14T08:01:13.827Z,99796.06
2022-12-14T08:03:47.124Z,99796.88
2022-12-14T08:06:17.107Z,99796.66
2022-12-14T08:08:46.368Z,99796.66
2022-12-14T08:11:16.240Z,99798.16
2022-12-14T08:13:47.064Z,99799.88
2022-12-14T08:16:17.844Z,99803.22
2022-12-14T08:18:46.502Z,99804.94
2022-12-14T08:21:16.070Z,99803.06
2022-12-14T08:23:44.791Z,99807.44
2022-12-14T08:26:13.643Z,99804.66
2022-12-14T08:28:42.447Z,99815.97
2022-12-14T08:31:14.963Z,99819.53
2022-12-14T08:33:44.972Z,99813.34
2022-12-14T08:36:15.718Z,99810.91
2022-12-14T08:38:44.859Z,99807.13
2022-12-14T08:41:15.306Z,99812.13
2022-12-14T08:43:55.713Z,99811.09
2022-12-14T08:46:26.690Z,99810.75
2022-12-14T08:48:56.240Z,99813.25
2022-12-14T08:51:30.655Z,99809.50
2022-12-14T08:53:59.668Z,99808.50
2022-12-14T08:56:29.255Z,99813.78
2022-12-14T08:58:58.883Z,99801.38
2022-12-14T09:01:34.085Z,99812.53
2022-12-14T09:04:05.446Z,99805.44
2022-12-14T09:06:37.200Z,99799.13
2022-12-14T09:09:13.328Z,99802.53
2022-12-14T09:11:44.641Z,99802.53
2022-12-14T09:14:13.482Z,99805.97
2022-12-14T09:16:43.848Z,99797.13
2022-12-14T09:19:12.731Z,99798.06
2022-12-14T09:21:41.592Z,99789.94
2022-12-14T09:24:11.182Z,99788.31
2022-12-14T09:26:39.888Z,99797.06
2022-12-14T09:29:08.863Z,99794.44
2022-12-14T09:31:37.585Z,99794.28
2022-12-14T09:34:08.213Z,99791.50
2022-12-14T09:36:37.613Z,99795.13
2022-12-14T09:39:06.298Z,99792.28
2022-12-14T09:41:50.730Z,99792.13
2022-12-14T09:44:32.890Z,99782.47
2022-12-14T09:47:03.848Z,99783.34
2022-12-14T09:49:36.734Z,99792.78
2022-12-14T09:52:08.636Z,99785.81
2022-12-14T09:54:40.519Z,99796.13
2022-12-14T09:57:14.215Z,99788.09
2022-12-14T09:59:43.126Z,99782.75
2022-12-14T10:02:31.767Z,99784.38
2022-12-14T10:05:34.714Z,99787.03
2022-12-14T10:08:14.774Z,99789.56
2022-12-14T10:10:54.473Z,99788.56
2022-12-14T10:13:33.981Z,99784.00
2022-12-14T10:16:16.742Z,99789.06
2022-12-14T10:19:03.236Z,99781.28
2022-12-14T10:21:47.814Z,99775.19
2022-12-14T10:24:22.455Z,99780.28
2022-12-14T10:26:54.492Z,99782.84
2022-12-14T10:29:34.715Z,99780.91
2022-12-14T10:32:21.267Z,99782.41
2022-12-14T10:34:50.960Z,99781.31
2022-12-14T10:37:28.544Z,99790.00
2022-12-14T10:40:30.774Z,99784.50
2022-12-14T10:43:16.163Z,99785.34
2022-12-14T10:45:53.181Z,99792.19
2022-12-14T10:48:43.309Z,99792.34
2022-12-14T10:51:17.442Z,99799.53
2022-12-14T10:53:54.830Z,99799.75
2022-12-14T10:56:27.443Z,99804.09
2022-12-14T10:59:38.918Z,99799.69
2022-12-14T11:02:17.869Z,99800.63
2022-12-14T11:04:50.862Z,99793.78
2022-12-14T11:07:21.604Z,99789.38
2022-12-14T11:09:51.960Z,99792.16
2022-12-14T11:12:25.074Z,99805.59
2022-12-14T11:14:57.828Z,99805.75
2022-12-14T11:17:40.808Z,99799.50
2022-12-14T11:20:24.515Z,99803.06
2022-12-14T11:22:56.115Z,99801.22
2022-12-14T11:25:32.625Z,99794.06
2022-12-14T11:28:04.803Z,99801.91
2022-12-14T11:30:36.212Z,99794.00
2022-12-14T11:33:05.432Z,99796.47
2022-12-14T11:35:34.305Z,99802.47
2022-12-14T11:38:03.028Z,99803.16
2022-12-14T11:40:38.386Z,99802.31
2022-12-14T11:43:07.170Z,99806.41
2022-12-14T11:45:37.614Z,99794.81
2022-12-14T11:48:22.511Z,99791.03
2022-12-14T11:50:51.755Z,99785.59
2022-12-14T11:53:22.178Z,99781.72
2022-12-14T11:55:57.800Z,99788.56
2022-12-14T11:58:29.623Z,99784.97
2022-12-14T12:01:01.721Z,99778.63
2022-12-14T12:03:35.969Z,99773.13
2022-12-14T12:06:08.963Z,99780.09
2022-12-14T12:08:40.265Z,99772.19
2022-12-14T12:11:19.871Z,99772.06
2022-12-14T12:13:52.787Z,99771.97
2022-12-14T12:16:25.108Z,99779.69
2022-12-14T12:18:57.857Z,99767.25
2022-12-14T12:21:30.047Z,99769.81
2022-12-14T12:24:04.352Z,99774.31
2022-12-14T12:26:39.599Z,99761.19
2022-12-14T12:29:15.176Z,99772.69
2022-12-14T12:31:50.553Z,99766.53
2022-12-14T12:34:23.640Z,99766.53
2022-12-14T12:37:24.882Z,99765.00
2022-12-14T12:39:49.762Z,99763.00
2022-12-14T12:42:26.137Z,99760.25
2022-12-14T12:45:02.066Z,99752.22
2022-12-14T12:47:46.160Z,99757.31
2022-12-14T12:50:22.888Z,99751.09
2022-12-14T12:53:03.073Z,99756.25
2022-12-14T12:55:35.478Z,99754.22
2022-12-14T12:58:10.150Z,99764.59
2022-12-14T13:00:42.002Z,99761.00
2022-12-14T13:03:17.484Z,99756.34
2022-12-14T13:05:48.853Z,99757.97
2022-12-14T13:08:28.231Z,99756.34
2022-12-14T13:11:25.089Z,99757.28
2022-12-14T13:13:54.560Z,99753.88
2022-12-14T13:16:28.668Z,99755.50
2022-12-14T13:19:32.043Z,99756.28
2022-12-14T13:21:54.591Z,99751.25
2022-12-14T13:24:25.316Z,99753.72
2022-12-14T13:27:19.277Z,99750.31
2022-12-14T13:30:05.860Z,99751.00
2022-12-14T13:32:54.711Z,99742.00
2022-12-14T13:35:41.641Z,99740.28
2022-12-14T13:38:32.896Z,99748.13
2022-12-14T13:41:29.920Z,99755.25
2022-12-14T13:44:18.898Z,99756.09
2022-12-14T13:47:00.637Z,99744.72
2022-12-14T13:49:30.278Z,99749.91
2022-12-14T13:51:59.051Z,99745.09
2022-12-14T13:54:30.507Z,99742.50
2022-12-14T13:57:05.761Z,99751.19
2022-12-14T13:59:42.305Z,99754.78
2022-12-14T14:02:41.389Z,99742.50
2022-12-14T14:05:46.390Z,99744.84
2022-12-14T14:08:39.292Z,99751.81
2022-12-14T14:11:46.917Z,99736.75
2022-12-14T14:14:36.275Z,99741.13
2022-12-14T14:17:12.608Z,99749.75
2022-12-14T14:19:49.749Z,99743.56
2022-12-14T14:22:23.942Z,99743.56
2022-12-14T14:24:58.516Z,99738.31
2022-12-14T14:27:30.998Z,99734.97
2022-12-14T14:30:00.007Z,99733.94
2022-12-14T14:32:43.860Z,99729.56
2022-12-14T14:35:29.635Z,99739.22
2022-12-14T14:38:01.232Z,99733.94
2022-12-14T14:41:13.928Z,99731.31
2022-12-14T14:43:29.312Z,99726.03
2022-12-14T14:46:01.609Z,99725.78
2022-12-14T14:48:35.299Z,99725.91
2022-12-14T14:51:09.180Z,99720.94
2022-12-14T14:53:39.970Z,99718.38
2022-12-14T14:56:37.174Z,99710.75
2022-12-14T14:59:54.976Z,99718.03
2022-12-14T15:02:42.695Z,99720.03
2022-12-14T15:08:19.600Z,99721.56
2022-12-14T15:10:49.325Z,99716.38
2022-12-14T15:13:22.470Z,99722.41
2022-12-14T15:15:53.499Z,99728.63
2022-12-14T15:18:22.945Z,99726.31
2022-12-14T15:21:02.273Z,99724.75
2022-12-14T15:23:36.956Z,99730.53
2022-12-14T15:26:16.473Z,99728.13
2022-12-14T15:28:49.074Z,99722.50
2022-12-14T15:31:17.828Z,99714.22
2022-12-14T15:33:49.246Z,99709.16
2022-12-14T15:36:20.728Z,99728.69
2022-12-14T15:38:55.147Z,99718.53
2022-12-14T15:41:25.825Z,99718.25
2022-12-14T15:43:59.805Z,99718.31
2022-12-14T15:46:30.605Z,99733.94
2022-12-14T15:49:00.144Z,99744.59
2022-12-14T15:51:32.910Z,99758.72
2022-12-14T15:54:04.658Z,99761.72
2022-12-14T15:56:35.810Z,99765.56
2022-12-14T15:59:06.717Z,99768.25
2022-12-14T16:01:40.659Z,99759.88
2022-12-14T16:04:20.683Z,99766.56
2022-12-14T16:06:52.912Z,99769.91
2022-12-14T16:09:27.733Z,99761.53
2022-12-14T16:11:58.485Z,99764.56
2022-12-14T16:14:33.002Z,99770.97
2022-12-14T16:17:02.561Z,99775.25
2022-12-14T16:19:57.423Z,99776.22
2022-12-14T16:22:26.309Z,99782.53
2022-12-14T16:25:04.385Z,99781.06
2022-12-14T16:27:36.307Z,99787.91
2022-12-14T16:30:17.126Z,99793.84
2022-12-14T16:32:49.981Z,99792.84
2022-12-14T16:35:25.210Z,99804.94
2022-12-14T16:37:55.903Z,99806.59
2022-12-14T16:40:33.545Z,99803.94
2022-12-14T16:43:02.868Z,99807.44
2022-12-14T16:46:08.085Z,99812.69
2022-12-14T16:48:39.342Z,99815.16
2022-12-14T16:54:30.551Z,99811.41
2022-12-14T16:57:03.471Z,99822.84
2022-12-14T16:59:41.272Z,99815.06
2022-12-14T17:02:28.200Z,99808.00
2022-12-14T17:04:58.668Z,99804.53
2022-12-14T17:07:29.088Z,99797.69
2022-12-14T17:09:57.909Z,99794.44
2022-12-14T17:12:28.177Z,99806.78
2022-12-14T17:14:56.684Z,99806.78
2022-12-14T17:17:30.364Z,99812.97
2022-12-14T17:19:58.928Z,99806.00
2022-12-14T17:22:31.583Z,99820.22
2022-12-14T17:25:02.724Z,99809.81
2022-12-14T17:27:32.883Z,99812.00
2022-12-14T17:30:01.325Z,99819.19
2022-12-14T17:32:31.903Z,99817.53
2022-12-14T17:35:00.854Z,99817.75
2022-12-14T17:37:34.286Z,99813.53
2022-12-14T17:40:05.498Z,99809.25
2022-12-14T17:42:35.954Z,99801.03
2022-12-14T17:45:05.054Z,99805.59
2022-12-14T17:47:33.474Z,99812.06
2022-12-14T17:50:01.992Z,99817.84
2022-12-14T17:52:33.554Z,99821.19
2022-12-14T17:55:02.349Z,99816.78
2022-12-14T17:57:30.831Z,99818.75
2022-12-14T18:00:14.593Z,99823.16
2022-12-14T18:02:45.780Z,99821.38
2022-12-14T18:05:20.114Z,99824.31
2022-12-14T18:07:49.908Z,99827.41
2022-12-14T18:10:19.762Z,99827.31
2022-12-14T18:12:48.826Z,99836.97
2022-12-14T18:15:22.236Z,99843.75
2022-12-14T18:17:51.859Z,99840.13
2022-12-14T18:20:21.121Z,99851.31
2022-12-14T18:22:51.224Z,99841.47
2022-12-14T18:25:33.843Z,99842.19
2022-12-14T18:28:03.129Z,99845.66
2022-12-14T18:30:40.518Z,99848.09
2022-12-14T18:33:14.804Z,99849.72
2022-12-14T18:35:43.987Z,99848.94
2022-12-14T18:38:12.563Z,99856.81
2022-12-14T18:40:43.226Z,99867.28
2022-12-14T18:43:19.097Z,99872.47
2022-12-14T18:45:49.541Z,99871.53
2022-12-14T18:48:17.944Z,99872.34
2022-12-14T18:50:46.639Z,99875.81
2022-12-14T18:53:20.323Z,99879.38
2022-12-14T18:55:49.562Z,99882.75
2022-12-14T18:58:20.705Z,99880.22
2022-12-14T19:00:51.744Z,99882.72
2022-12-14T19:03:20.811Z,99880.22
2022-12-14T19:05:49.823Z,99894.19
2022-12-14T19:08:19.626Z,99890.59
2022-12-14T19:10:50.742Z,99893.22
2022-12-14T19:13:25.728Z,99904.75
2022-12-14T19:15:58.365Z,99909.94
2022-12-14T19:18:30.683Z,99909.94
2022-12-14T19:21:00.584Z,99917.00
2022-12-14T19:23:29.644Z,99924.88
2022-12-14T19:26:02.181Z,99931.03
2022-12-14T19:28:33.501Z,99936.34
2022-12-14T19:31:04.407Z,99932.88
2022-12-14T19:33:34.635Z,99937.38
2022-12-14T19:36:07.541Z,99938.38
2022-12-14T19:38:36.858Z,99927.72
2022-12-14T19:41:07.950Z,99934.75
2022-12-14T19:43:37.437Z,99930.50
2022-12-14T19:46:09.648Z,99924.22
2022-12-14T19:48:39.227Z,99939.13
2022-12-14T19:51:10.930Z,99938.50
2022-12-14T19:53:41.058Z,99946.50
2022-12-14T19:56:09.825Z,99952.31
2022-12-14T19:58:38.382Z,99950.44
2022-12-14T20:01:11.734Z,99957.97
2022-12-14T20:03:41.077Z,99960.91
2022-12-14T20:06:10.699Z,99968.44
2022-12-14T20:08:39.678Z,99960.00
2022-12-14T20:11:09.498Z,99968.03
2022-12-14T20:13:38.523Z,99975.38
2022-12-14T20:16:07.683Z,99975.22
2022-12-14T20:18:37.724Z,99974.66
2022-12-14T20:21:08.190Z,99969.50
2022-12-14T20:23:38.313Z,99978.41
2022-12-14T20:26:09.228Z,99982.06
2022-12-14T20:28:37.465Z,99984.00
2022-12-14T20:31:07.502Z,99989.47
2022-12-14T20:33:38.760Z,99997.59
2022-12-14T20:36:08.373Z,99994.94
2022-12-14T20:38:36.927Z,99996.69
2022-12-14T20:41:06.657Z,99995.88
2022-12-14T20:43:36.551Z,100004.63
2022-12-14T20:46:06.176Z,99993.94
2022-12-14T20:48:34.734Z,99995.72
2022-12-14T20:51:05.052Z,100010.72
2022-12-14T20:53:34.053Z,100011.16
2022-12-14T20:56:05.229Z,100013.13
2022-12-14T20:58:33.778Z,100012.41
2022-12-14T21:01:07.545Z,100022.03
2022-12-14T21:03:36.569Z,100019.59
2022-12-14T21:06:07.548Z,100014.47
2022-12-14T21:08:57.134Z,100019.94
2022-12-14T21:11:43.131Z,100017.91
2022-12-14T21:14:11.975Z,100020.03
2022-12-14T21:16:41.044Z,100010.47
2022-12-14T21:19:11.509Z,100006.97
2022-12-14T21:21:48.111Z,100007.94
2022-12-14T21:24:37.480Z,100007.91
2022-12-14T21:27:10.208Z,100007.44
2022-12-14T21:29:38.609Z,100012.34
2022-12-14T21:32:07.591Z,100011.41
2022-12-14T21:34:36.097Z,100000.47
2022-12-14T21:37:06.180Z,100009.22
2022-12-14T21:39:35.253Z,100015.28
2022-12-14T21:42:15.666Z,100011.66
2022-12-14T21:44:45.835Z,100009.16
2022-12-14T21:47:16.873Z,100016.16
2022-12-14T21:49:47.450Z,100012.94
2022-12-14T21:52:19.622Z,100014.81
2022-12-14T21:54:48.353Z,100013.78
2022-12-14T21:57:35.778Z,100016.53
2022-12-14T22:00:05.506Z,100012.19
2022-12-14T22:02:41.965Z,100012.31
2022-12-14T22:05:11.089Z,100010.66
2022-12-14T22:07:41.013Z,100012.25
2022-12-14T22:10:09.878Z,100020.06
2022-12-14T22:12:38.232Z,100016.81
2022-12-14T22:15:07.615Z,100026.56
2022-12-14T22:17:36.133Z,100023.66
2022-12-14T22:20:05.493Z,100025.44
2022-12-14T22:22:34.611Z,100027.19
2022-12-14T22:25:05.119Z,100032.56
2022-12-14T22:27:33.600Z,100034.22
2022-12-14T22:30:02.078Z,100032.41
2022-12-14T22:32:30.735Z,100030.78
2022-12-14T22:34:59.092Z,100022.03
2022-12-14T22:37:27.579Z,100025.75
2022-12-14T22:39:56.157Z,100025.66
2022-12-14T22:42:26.098Z,100028.38
2022-12-14T22:44:54.719Z,100029.22
2022-12-14T22:47:23.298Z,100027.78
2022-12-14T22:49:51.779Z,100024.22
2022-12-14T22:52:24.705Z,100017.53
2022-12-14T22:54:54.696Z,100022.69
2022-12-14T22:57:23.860Z,100021.88
2022-12-14T22:59:59.974Z,100032.28
2022-12-14T23:02:30.744Z,100032.63
2022-12-14T23:04:59.443Z,100026.44
2022-12-14T23:07:27.957Z,100025.56
2022-12-14T23:10:13.982Z,100028.97
2022-12-14T23:12:59.759Z,100031.66
2022-12-14T23:15:47.035Z,100041.38
2022-12-14T23:18:33.439Z,100038.75
2022-12-14T23:21:27.072Z,100044.00
2022-12-14T23:24:12.845Z,100040.72
2022-12-14T23:26:58.528Z,100039.91
2022-12-14T23:29:44.724Z,100045.09
2022-12-14T23:32:32.035Z,100042.59
2022-12-14T23:35:18.028Z,100053.31
2022-12-14T23:38:03.627Z,100060.22
2022-12-14T23:40:49.423Z,100056.78
2022-12-14T23:43:36.669Z,100054.38
2022-12-14T23:46:25.105Z,100056.78
2022-12-14T23:49:15.949Z,100056.03
2022-12-14T23:52:02.300Z,100059.38
2022-12-14T23:54:48.334Z,100065.47
2022-12-14T23:57:34.498Z,100059.38
